Time;durP1;ratioP1;P1;durP2;ratioP2;P2;SDS_P1;SDS_P2;PMS_P1;PMS_P2;Temp;Humidity;BMP_temperature;BMP_pressure;BME280_temperature;BME280_humidity;BME280_pressure;Samples;Min_cycle;Max_cycle;Signal;HPM_P1;HPM_P2
2024/01/16 00:01:28;;;;;;;;;;;;;;;3.54;60.83;98247.59;5033551;22;19910;-86
2024/01/16 00:07:06;;;;;;;;;;;;;;;3.55;60.50;98246.63;5092606;23;19909;-84
2024/01/16 00:12:27;;;;;;;;;;;;;;;3.51;60.21;98254.78;5066926;22;19910;-85
2024/01/16 00:39:14;;;;;;;;;;;;;;;3.62;60.91;98239.75;5056522;23;19933;-84
2024/01/16 00:42:00;;;;;;;;;;;;;;;3.66;61.00;98234.03;4984495;28;19917;-84
2024/01/16 00:53:48;;;;;;;;;;;;;;;3.66;61.11;98210.53;5021206;28;19956;-83
2024/01/16 00:56:15;;;;;;;;;;;;;;;3.67;61.22;98209.56;5084355;23;19945;-84
2024/01/16 01:07:33;;;;;;;;;;;;;;;3.63;61.00;98205.66;5215826;22;19910;-83
2024/01/16 01:15:43;;;;;;;;;;;;;;;3.62;60.65;98204.03;5031765;22;19930;-84
2024/01/16 01:21:45;;;;;;;;;;;;;;;3.62;61.18;98201.41;5001137;28;19930;-83
2024/01/16 01:30:33;;;;;;;;;;;;;;;3.55;61.20;98195.25;5020425;28;19917;-83
2024/01/16 01:33:05;;;;;;;;;;;;;;;3.53;61.32;98191.97;5003665;28;19930;-84
2024/01/16 01:38:23;;;;;;;;;;;;;;;3.53;61.27;98188.56;5035942;22;19917;-84
2024/01/16 01:40:57;;;;;;;;;;;;;;;3.51;61.16;98188.72;4997566;28;19910;-84
2024/01/16 01:55:03;;;;;;;;;;;;;;;3.54;61.57;98172.72;5080165;22;19933;-84
2024/01/16 01:57:48;;;;;;;;;;;;;;;3.55;61.34;98174.38;4922828;29;19927;-83
2024/01/16 02:06:48;;;;;;;;;;;;;;;3.56;61.30;98170.78;5020029;28;19913;-83
2024/01/16 02:09:15;;;;;;;;;;;;;;;3.54;61.73;98169.31;5066739;22;19910;-84
2024/01/16 02:17:53;;;;;;;;;;;;;;;3.45;61.54;98153.66;5056515;22;19911;-83
2024/01/16 02:23:36;;;;;;;;;;;;;;;3.47;61.50;98164.75;5043451;23;19910;-82
2024/01/16 02:29:10;;;;;;;;;;;;;;;3.45;61.21;98194.59;5019541;28;19932;-83
2024/01/16 02:31:53;;;;;;;;;;;;;;;3.44;61.47;98196.41;5002619;28;19917;-84
2024/01/16 02:34:48;;;;;;;;;;;;;;;3.44;61.65;98198.19;5019062;28;19969;-83
2024/01/16 02:37:20;;;;;;;;;;;;;;;3.45;61.85;98205.03;5000740;28;19922;-82
2024/01/16 02:40:10;;;;;;;;;;;;;;;3.47;61.77;98214.34;5006278;28;19917;-82
2024/01/16 02:43:29;;;;;;;;;;;;;;;3.44;61.66;98211.25;5016715;28;19922;-83
2024/01/16 02:46:09;;;;;;;;;;;;;;;3.39;61.17;98223.97;5002472;28;19906;-82
2024/01/16 02:49:14;;;;;;;;;;;;;;;3.35;61.49;98220.88;5019419;28;19920;-85
2024/01/16 02:54:50;;;;;;;;;;;;;;;3.32;62.05;98226.41;5019233;28;19937;-83
2024/01/16 02:57:29;;;;;;;;;;;;;;;3.28;61.85;98219.91;5017766;28;19918;-83
2024/01/16 02:59:56;;;;;;;;;;;;;;;3.29;61.59;98218.91;5156430;22;19918;-83
2024/01/16 03:05:29;;;;;;;;;;;;;;;3.27;61.55;98233.91;4978025;28;19939;-82
2024/01/16 03:08:14;;;;;;;;;;;;;;;3.24;61.33;98236.84;4979372;28;19962;-82
2024/01/16 03:25:38;;;;;;;;;;;;;;;3.18;60.85;98235.72;5193971;23;19910;-83
2024/01/16 03:31:23;;;;;;;;;;;;;;;3.10;61.17;98235.72;5057824;23;19998;-84
2024/01/16 03:48:22;;;;;;;;;;;;;;;2.96;61.03;98251.16;5216323;23;19929;-83
2024/01/16 03:51:03;;;;;;;;;;;;;;;2.96;61.06;98257.19;5021390;28;20331;-82
2024/01/16 03:53:37;;;;;;;;;;;;;;;2.97;61.37;98261.44;5021760;28;19925;-83
2024/01/16 03:56:21;;;;;;;;;;;;;;;2.99;60.99;98261.28;5035478;22;19906;-81
2024/01/16 03:58:49;;;;;;;;;;;;;;;2.97;61.24;98261.44;5021601;28;19933;-82
2024/01/16 04:04:42;;;;;;;;;;;;;;;2.97;61.51;98284.88;5320843;22;20168;-82
2024/01/16 04:10:48;;;;;;;;;;;;;;;2.90;61.55;98307.34;5044878;22;20874;-85
2024/01/16 04:19:50;;;;;;;;;;;;;;;2.90;61.51;98312.56;5156605;23;19941;-82
2024/01/16 04:22:20;;;;;;;;;;;;;;;2.86;61.22;98308.66;5266239;22;19910;-83
2024/01/16 04:27:26;;;;;;;;;;;;;;;2.81;60.69;98326.56;5141127;23;19910;-81
2024/01/16 04:30:10;;;;;;;;;;;;;;;2.84;60.50;98328.84;5004087;28;19918;-83
2024/01/16 04:35:27;;;;;;;;;;;;;;;2.79;61.08;98334.53;5079674;22;19911;-84
2024/01/16 04:38:04;;;;;;;;;;;;;;;2.81;61.26;98331.78;4952234;28;19910;-81
2024/01/16 04:40:40;;;;;;;;;;;;;;;2.79;61.02;98344.97;5032457;23;19916;-82
2024/01/16 04:43:08;;;;;;;;;;;;;;;2.76;61.55;98349.69;5139941;22;19910;-83
2024/01/16 04:45:54;;;;;;;;;;;;;;;2.73;61.23;98352.59;5084281;23;19910;-83
2024/01/16 04:48:38;;;;;;;;;;;;;;;2.73;61.46;98350.81;5000136;28;19907;-83
2024/01/16 04:51:21;;;;;;;;;;;;;;;2.74;61.29;98359.44;4998526;28;19906;-83
2024/01/16 04:54:06;;;;;;;;;;;;;;;2.75;61.53;98364.50;4989810;28;19922;-82
2024/01/16 05:10:39;;;;;;;;;;;;;;;2.80;61.27;98379.66;5114877;23;19910;-82
2024/01/16 05:13:17;;;;;;;;;;;;;;;2.81;61.68;98378.69;5002628;28;19912;-82
2024/01/16 05:18:32;;;;;;;;;;;;;;;2.76;62.02;98376.56;5228297;22;19910;-83
2024/01/16 05:21:22;;;;;;;;;;;;;;;2.72;61.98;98379.63;5000612;28;19906;-83
2024/01/16 05:23:56;;;;;;;;;;;;;;;2.72;61.78;98387.44;5000877;28;19996;-82
2024/01/16 05:27:04;;;;;;;;;;;;;;;2.71;62.54;98396.25;5435632;23;19933;-83
2024/01/16 05:30:14;;;;;;;;;;;;;;;2.70;62.16;98395.44;5019948;28;19977;-82
2024/01/16 05:32:52;;;;;;;;;;;;;;;2.67;61.99;98410.56;5019690;28;19946;-83
2024/01/16 05:40:56;;;;;;;;;;;;;;;2.69;62.78;98445.09;5677628;23;19910;-82
2024/01/16 05:43:28;;;;;;;;;;;;;;;2.67;62.33;98445.25;4986386;28;19926;-82
2024/01/16 05:51:22;;;;;;;;;;;;;;;2.66;62.77;98489.72;4735027;26;19949;-83
2024/01/16 05:54:01;;;;;;;;;;;;;;;2.66;63.27;98492.31;5000039;28;19989;-82
2024/01/16 05:56:38;;;;;;;;;;;;;;;2.65;63.94;98482.88;5276370;23;19957;-82
2024/01/16 05:59:05;;;;;;;;;;;;;;;2.63;62.86;98487.41;5041054;23;21079;-81
2024/01/16 06:01:46;;;;;;;;;;;;;;;2.68;63.27;98483.38;5019688;28;19913;-81
2024/01/16 06:04:41;;;;;;;;;;;;;;;2.67;63.72;98505.19;5178056;22;19917;-80
2024/01/16 06:07:35;;;;;;;;;;;;;;;2.69;63.55;98531.91;5019750;28;19905;-82
2024/01/16 06:27:59;;;;;;;;;;;;;;;2.83;61.67;98593.91;5809101;22;19950;-83
2024/01/16 06:39:31;;;;;;;;;;;;;;;2.96;61.20;98643.06;5060748;22;19953;-83
2024/01/16 06:54:28;;;;;;;;;;;;;;;3.37;59.18;98649.38;5019316;28;20327;-83
2024/01/16 06:56:58;;;;;;;;;;;;;;;3.42;58.68;98643.72;5018988;28;19989;-81
2024/01/16 07:00:14;;;;;;;;;;;;;;;3.46;58.61;98658.06;5018921;28;19937;-82
2024/01/16 07:02:45;;;;;;;;;;;;;;;3.48;58.39;98645.69;5002066;28;19966;-82
2024/01/16 07:05:33;;;;;;;;;;;;;;;3.55;58.40;98658.94;5010955;28;19922;-82
2024/01/16 07:08:01;;;;;;;;;;;;;;;3.64;58.28;98665.84;5011074;28;19921;-82
2024/01/16 07:10:54;;;;;;;;;;;;;;;3.73;57.97;98675.38;5005752;28;19902;-83
2024/01/16 07:19:44;;;;;;;;;;;;;;;4.12;56.09;98673.91;5061969;28;19916;-84
2024/01/16 07:22:30;;;;;;;;;;;;;;;4.33;55.70;98686.53;5021190;28;20439;-83
2024/01/16 07:25:07;;;;;;;;;;;;;;;4.50;55.10;98684.00;4964557;28;20519;-82
2024/01/16 07:27:33;;;;;;;;;;;;;;;4.65;55.92;98690.22;4980566;28;19914;-85
2024/01/16 07:29:58;;;;;;;;;;;;;;;4.76;55.74;98693.34;4993822;28;19933;-85
2024/01/16 07:32:23;;;;;;;;;;;;;;;4.86;55.53;98701.03;4993441;28;20322;-87
2024/01/16 07:34:50;;;;;;;;;;;;;;;4.94;55.40;98705.47;4993354;28;19975;-87
2024/01/16 07:37:15;;;;;;;;;;;;;;;5.03;55.44;98718.38;4970657;28;19915;-87
2024/01/16 07:39:41;;;;;;;;;;;;;;;5.10;54.46;98713.31;4973833;28;19925;-87
2024/01/16 07:42:06;;;;;;;;;;;;;;;5.19;55.11;98730.66;4973801;28;19914;-87
2024/01/16 07:44:31;;;;;;;;;;;;;;;5.23;53.84;98728.56;4976572;28;19918;-88
2024/01/16 07:46:56;;;;;;;;;;;;;;;5.31;53.81;98731.16;4973867;28;19921;-88
2024/01/16 07:49:23;;;;;;;;;;;;;;;5.37;53.90;98743.59;4983191;28;19969;-88
2024/01/16 07:51:48;;;;;;;;;;;;;;;5.41;53.32;98740.47;4976704;28;19913;-88
2024/01/16 07:54:14;;;;;;;;;;;;;;;5.47;54.13;98753.91;5014392;28;19917;-89
2024/01/16 07:56:39;;;;;;;;;;;;;;;5.54;54.53;98760.91;5017451;28;19953;-88
2024/01/16 07:59:04;;;;;;;;;;;;;;;5.63;54.67;98762.53;5012653;28;20460;-90
2024/01/16 08:01:30;;;;;;;;;;;;;;;5.70;54.38;98773.19;5013531;28;19924;-89
2024/01/16 08:03:55;;;;;;;;;;;;;;;5.71;54.16;98773.00;4995236;28;19914;-89
2024/01/16 08:06:21;;;;;;;;;;;;;;;5.78;55.03;98777.59;4996698;28;19923;-90
2024/01/16 08:08:46;;;;;;;;;;;;;;;5.83;54.32;98773.47;4996368;28;19913;-90
2024/01/16 08:11:12;;;;;;;;;;;;;;;5.87;54.75;98782.66;4997129;28;20036;-89
2024/01/16 08:13:37;;;;;;;;;;;;;;;5.91;55.33;98781.34;5014322;28;19924;-89
2024/01/16 08:16:02;;;;;;;;;;;;;;;5.93;55.05;98784.63;5008971;28;20334;-89
2024/01/16 08:18:28;;;;;;;;;;;;;;;5.94;55.74;98790.69;4977142;28;20383;-88
2024/01/16 08:20:53;;;;;;;;;;;;;;;6.01;55.27;98799.53;5005204;28;19929;-88
2024/01/16 08:23:21;;;;;;;;;;;;;;;6.07;55.78;98804.13;4994646;28;19917;-88
2024/01/16 08:25:46;;;;;;;;;;;;;;;6.14;55.63;98815.56;5012860;28;19921;-89
2024/01/16 08:28:11;;;;;;;;;;;;;;;6.18;55.01;98829.97;5000304;28;19917;-89
2024/01/16 08:30:36;;;;;;;;;;;;;;;6.24;55.66;98834.53;4987373;28;20391;-90
2024/01/16 08:33:02;;;;;;;;;;;;;;;6.30;55.66;98841.75;5012951;28;19925;-89
2024/01/16 08:35:27;;;;;;;;;;;;;;;6.36;55.38;98851.56;4993712;28;19924;-89
2024/01/16 08:37:52;;;;;;;;;;;;;;;6.36;55.53;98856.78;5012455;28;19968;-88
2024/01/16 08:40:18;;;;;;;;;;;;;;;6.43;55.20;98866.63;4998683;28;20004;-88
2024/01/16 08:42:43;;;;;;;;;;;;;;;6.44;54.58;98863.81;4994445;28;19968;-89
2024/01/16 08:45:09;;;;;;;;;;;;;;;6.43;55.17;98872.69;5004107;28;19914;-89
2024/01/16 08:47:34;;;;;;;;;;;;;;;6.40;55.27;98873.00;4989406;28;19918;-88
2024/01/16 08:49:59;;;;;;;;;;;;;;;6.36;55.55;98871.72;5013418;28;19920;-89
2024/01/16 08:52:24;;;;;;;;;;;;;;;6.31;55.59;98872.22;4996297;28;20473;-88
2024/01/16 08:54:50;;;;;;;;;;;;;;;6.31;56.45;98884.50;4976061;28;19922;-90
2024/01/16 08:57:15;;;;;;;;;;;;;;;6.35;56.74;98876.13;4976281;28;19924;-87
2024/01/16 08:59:41;;;;;;;;;;;;;;;6.33;57.06;98878.09;4993924;28;19914;-88
2024/01/16 09:02:07;;;;;;;;;;;;;;;6.37;56.71;98881.22;5010079;28;19917;-89
2024/01/16 09:04:32;;;;;;;;;;;;;;;6.40;57.14;98887.91;4994370;28;19917;-89
2024/01/16 09:06:58;;;;;;;;;;;;;;;6.38;56.45;98898.56;5010814;28;19923;-88
2024/01/16 09:09:23;;;;;;;;;;;;;;;6.40;56.35;98898.41;5012213;28;19993;-90
2024/01/16 09:11:48;;;;;;;;;;;;;;;6.38;57.07;98891.53;5011071;28;19917;-89
2024/01/16 09:14:14;;;;;;;;;;;;;;;6.40;57.17;98891.38;5004941;28;19928;-89
2024/01/16 09:16:40;;;;;;;;;;;;;;;6.45;56.83;98890.88;5007051;28;19918;-88
2024/01/16 09:19:06;;;;;;;;;;;;;;;6.50;57.48;98897.25;4998602;28;19913;-90
2024/01/16 09:21:31;;;;;;;;;;;;;;;6.55;58.28;98896.72;5011768;28;19924;-89
2024/01/16 09:23:57;;;;;;;;;;;;;;;6.63;56.69;98905.41;4999833;28;19914;-89
2024/01/16 09:26:22;;;;;;;;;;;;;;;6.64;57.67;98911.47;4993601;28;19917;-89
2024/01/16 09:28:47;;;;;;;;;;;;;;;6.66;58.13;98912.94;4996474;28;19957;-89
2024/01/16 09:31:14;;;;;;;;;;;;;;;6.73;58.11;98920.97;5016059;28;19925;-89
2024/01/16 09:33:39;;;;;;;;;;;;;;;6.74;58.48;98911.31;5015509;28;19921;-88
2024/01/16 09:36:05;;;;;;;;;;;;;;;6.81;58.62;98922.75;5009183;28;19917;-89
2024/01/16 09:38:31;;;;;;;;;;;;;;;6.83;58.79;98921.59;5011972;28;19917;-89
2024/01/16 09:40:58;;;;;;;;;;;;;;;6.87;58.24;98917.66;4998060;28;19924;-89
2024/01/16 09:43:25;;;;;;;;;;;;;;;6.91;58.52;98912.88;4990964;28;20398;-89
2024/01/16 09:45:51;;;;;;;;;;;;;;;6.92;58.96;98917.97;4995017;28;19940;-89
2024/01/16 09:48:16;;;;;;;;;;;;;;;6.99;59.70;98913.66;4990010;28;20422;-87
2024/01/16 09:50:42;;;;;;;;;;;;;;;7.05;60.08;98924.47;4991824;28;20327;-89
2024/01/16 09:53:07;;;;;;;;;;;;;;;7.09;59.19;98923.97;4981769;28;20395;-89
2024/01/16 09:55:32;;;;;;;;;;;;;;;7.14;58.09;98931.31;5003808;28;19921;-89
2024/01/16 09:57:58;;;;;;;;;;;;;;;7.15;58.79;98933.78;4984617;28;19914;-88
2024/01/16 10:00:24;;;;;;;;;;;;;;;7.16;58.74;98924.91;4983628;28;19929;-89
2024/01/16 10:02:49;;;;;;;;;;;;;;;7.19;59.05;98932.44;5011979;28;20438;-88
2024/01/16 10:05:15;;;;;;;;;;;;;;;7.26;58.41;98940.44;4996212;28;20362;-88
2024/01/16 10:07:44;;;;;;;;;;;;;;;7.27;58.76;98942.09;4994111;28;19913;-87
2024/01/16 10:10:11;;;;;;;;;;;;;;;7.42;57.83;98939.53;5009213;28;19921;-89
2024/01/16 10:12:38;;;;;;;;;;;;;;;7.52;57.68;98948.88;4994900;28;19925;-88
2024/01/16 10:15:05;;;;;;;;;;;;;;;7.58;57.49;98963.94;5006475;28;20399;-89
2024/01/16 10:17:41;;;;;;;;;;;;;;;7.64;57.15;98965.06;5006646;28;20392;-88
2024/01/16 10:20:06;;;;;;;;;;;;;;;7.78;56.53;98969.56;4977101;28;19925;-89
2024/01/16 10:22:32;;;;;;;;;;;;;;;7.96;55.56;98980.63;4976790;28;19925;-88
2024/01/16 10:25:08;;;;;;;;;;;;;;;8.12;55.90;98977.06;5007928;28;19925;-88
2024/01/16 10:27:33;;;;;;;;;;;;;;;8.28;55.48;98981.38;4992614;28;20004;-88
2024/01/16 10:29:59;;;;;;;;;;;;;;;8.38;55.56;98976.72;4975066;28;20013;-88
2024/01/16 10:32:31;;;;;;;;;;;;;;;8.40;55.03;98974.75;4992423;28;19918;-89
2024/01/16 10:35:08;;;;;;;;;;;;;;;8.49;55.26;98971.03;4988372;28;19922;-89
2024/01/16 10:37:47;;;;;;;;;;;;;;;8.58;55.09;98967.34;4990266;28;19963;-87
2024/01/16 10:40:16;;;;;;;;;;;;;;;8.66;54.95;98984.03;4983219;28;20473;-88
2024/01/16 10:42:43;;;;;;;;;;;;;;;8.69;54.64;98971.34;4988364;28;19918;-86
2024/01/16 10:45:08;;;;;;;;;;;;;;;8.72;54.38;98955.19;4998520;28;19917;-88
2024/01/16 10:47:36;;;;;;;;;;;;;;;8.77;54.08;98965.19;4998595;28;20465;-87
2024/01/16 10:50:03;;;;;;;;;;;;;;;8.80;53.73;98970.09;4996417;28;19917;-88
2024/01/16 10:52:28;;;;;;;;;;;;;;;8.81;51.24;98977.78;4988266;28;19980;-89
2024/01/16 10:54:56;;;;;;;;;;;;;;;8.80;51.03;98980.59;4984876;28;19925;-86
2024/01/16 10:57:23;;;;;;;;;;;;;;;8.79;51.63;98971.91;4995064;28;19918;-87
2024/01/16 10:59:56;;;;;;;;;;;;;;;8.81;52.01;98998.03;5015740;28;20406;-88
2024/01/16 11:02:24;;;;;;;;;;;;;;;8.81;50.42;98977.78;4996700;28;19917;-89
2024/01/16 11:04:50;;;;;;;;;;;;;;;8.86;50.90;98985.97;4997295;28;19917;-86
2024/01/16 11:07:16;;;;;;;;;;;;;;;8.86;49.76;98995.69;4994727;28;20432;-87
2024/01/16 11:09:43;;;;;;;;;;;;;;;8.89;50.87;98995.31;4996111;28;19965;-86
2024/01/16 11:12:11;;;;;;;;;;;;;;;8.86;48.72;99004.41;5014198;28;19987;-86
2024/01/16 11:14:36;;;;;;;;;;;;;;;8.85;50.23;98997.50;5011035;28;20010;-86
2024/01/16 11:17:03;;;;;;;;;;;;;;;8.87;49.50;99011.28;4997112;28;19953;-86
2024/01/16 11:19:29;;;;;;;;;;;;;;;8.88;48.88;99009.47;4996494;28;19964;-86
2024/01/16 11:21:55;;;;;;;;;;;;;;;8.90;48.79;99015.38;4997279;28;20406;-87
2024/01/16 11:24:21;;;;;;;;;;;;;;;8.89;48.21;99026.91;5014908;28;19914;-87
2024/01/16 11:26:46;;;;;;;;;;;;;;;8.86;48.88;99020.19;4985529;28;20398;-87
2024/01/16 11:29:26;;;;;;;;;;;;;;;8.81;48.31;99024.34;4995354;28;19968;-87
2024/01/16 11:31:52;;;;;;;;;;;;;;;8.80;47.83;99020.09;4996878;28;19923;-87
2024/01/16 11:34:37;;;;;;;;;;;;;;;8.83;48.15;99022.38;5013244;28;19914;-87
2024/01/16 11:37:07;;;;;;;;;;;;;;;8.81;48.13;99027.81;4997016;28;20004;-88
2024/01/16 11:39:32;;;;;;;;;;;;;;;8.81;46.52;99037.53;4993710;28;19917;-87
2024/01/16 11:42:02;;;;;;;;;;;;;;;8.81;47.24;99027.81;5007789;28;21591;-87
2024/01/16 11:44:40;;;;;;;;;;;;;;;8.84;47.94;99030.09;5013582;28;20658;-87
2024/01/16 11:47:05;;;;;;;;;;;;;;;8.84;46.89;99024.81;5012051;28;20416;-87
2024/01/16 11:49:31;;;;;;;;;;;;;;;8.86;47.85;99022.81;4996882;28;20007;-87
2024/01/16 11:51:57;;;;;;;;;;;;;;;8.87;47.88;99035.00;5014038;28;19917;-87
2024/01/16 11:54:22;;;;;;;;;;;;;;;8.89;48.24;99040.06;5013085;28;20040;-87
2024/01/16 11:56:53;;;;;;;;;;;;;;;8.89;48.36;99034.81;5014410;28;19996;-87
2024/01/16 11:59:37;;;;;;;;;;;;;;;8.88;47.78;99036.63;5012602;28;19917;-87
2024/01/16 12:02:05;;;;;;;;;;;;;;;8.86;45.81;99043.88;5013509;28;20460;-87
2024/01/16 12:04:30;;;;;;;;;;;;;;;8.88;47.04;99051.59;5009713;28;19923;-87
2024/01/16 12:06:59;;;;;;;;;;;;;;;8.89;46.78;99051.44;5013350;28;19922;-87
2024/01/16 12:09:28;;;;;;;;;;;;;;;8.88;46.81;99051.59;5002730;28;19921;-87
2024/01/16 12:11:58;;;;;;;;;;;;;;;8.89;47.26;99056.69;5011880;28;19918;-87
2024/01/16 12:14:23;;;;;;;;;;;;;;;8.88;45.45;99060.31;5007365;28;20001;-86
2024/01/16 12:16:48;;;;;;;;;;;;;;;8.88;47.62;99070.84;4977172;28;19952;-86
2024/01/16 12:19:13;;;;;;;;;;;;;;;8.88;47.27;99081.38;4994766;28;20379;-88
2024/01/16 12:21:39;;;;;;;;;;;;;;;8.86;46.80;99079.91;4977490;28;20012;-88
2024/01/16 12:24:05;;;;;;;;;;;;;;;8.84;46.35;99080.09;4976663;28;20429;-87
2024/01/16 12:26:31;;;;;;;;;;;;;;;8.84;45.34;99081.91;4993280;28;20395;-87
2024/01/16 12:28:56;;;;;;;;;;;;;;;8.88;47.01;99078.75;4994920;28;19936;-88
2024/01/16 12:31:22;;;;;;;;;;;;;;;8.88;46.05;99078.75;4976397;28;20307;-88
2024/01/16 12:33:48;;;;;;;;;;;;;;;8.90;46.46;99089.09;4976938;28;19995;-87
2024/01/16 12:36:15;;;;;;;;;;;;;;;8.93;46.73;99090.59;4988386;28;19933;-86
2024/01/16 12:38:40;;;;;;;;;;;;;;;8.89;45.17;99087.47;4958841;28;19915;-87
2024/01/16 12:41:07;;;;;;;;;;;;;;;8.88;45.98;99091.09;4974871;28;19937;-86
2024/01/16 12:43:33;;;;;;;;;;;;;;;8.86;45.99;99086.00;4974343;28;19917;-87
2024/01/16 12:45:58;;;;;;;;;;;;;;;8.87;44.58;99090.28;4977008;28;19914;-87
2024/01/16 12:48:24;;;;;;;;;;;;;;;8.88;45.54;99106.88;4988806;28;19921;-87
2024/01/16 12:50:50;;;;;;;;;;;;;;;8.88;45.29;99102.44;4971586;28;19918;-86
2024/01/16 12:53:16;;;;;;;;;;;;;;;8.94;46.48;99115.91;4976120;28;20311;-86
2024/01/16 12:55:42;;;;;;;;;;;;;;;8.92;45.23;99121.38;4976514;28;19918;-86
2024/01/16 12:58:20;;;;;;;;;;;;;;;8.92;44.52;99121.38;4976406;28;19920;-87
2024/01/16 13:00:47;;;;;;;;;;;;;;;8.92;45.72;99124.00;4992243;28;19945;-86
2024/01/16 13:03:17;;;;;;;;;;;;;;;8.94;44.97;99135.16;4971834;28;19916;-87
2024/01/16 13:05:42;;;;;;;;;;;;;;;8.86;42.82;99137.84;4964128;28;19918;-87
2024/01/16 13:08:08;;;;;;;;;;;;;;;8.96;44.56;99142.88;4965579;28;19920;-87
2024/01/16 13:10:34;;;;;;;;;;;;;;;9.00;44.78;99149.44;4974516;28;19926;-87
2024/01/16 13:13:13;;;;;;;;;;;;;;;9.02;44.11;99155.34;4975364;28;19925;-87
2024/01/16 13:15:39;;;;;;;;;;;;;;;9.02;44.33;99155.34;4981345;28;20048;-87
2024/01/16 13:18:04;;;;;;;;;;;;;;;9.05;44.93;99162.88;4993186;28;19945;-88
2024/01/16 13:20:30;;;;;;;;;;;;;;;9.00;44.46;99173.13;4995113;28;19968;-86
2024/01/16 13:22:55;;;;;;;;;;;;;;;8.96;44.17;99174.47;4995226;28;20009;-86
2024/01/16 13:25:20;;;;;;;;;;;;;;;8.96;43.90;99183.19;5012048;28;19945;-87
2024/01/16 13:27:47;;;;;;;;;;;;;;;8.98;44.95;99178.56;5005291;28;19943;-87
2024/01/16 13:30:12;;;;;;;;;;;;;;;8.99;43.58;99184.66;5009038;28;19984;-87
2024/01/16 13:32:37;;;;;;;;;;;;;;;9.02;45.05;99192.22;5005119;28;19973;-87
2024/01/16 13:35:07;;;;;;;;;;;;;;;9.02;42.74;99200.94;4996612;28;19929;-87
2024/01/16 13:37:32;;;;;;;;;;;;;;;9.08;43.42;99204.66;4996757;28;19925;-87
2024/01/16 13:39:57;;;;;;;;;;;;;;;9.08;44.17;99205.50;4993343;28;19917;-88
2024/01/16 13:42:22;;;;;;;;;;;;;;;9.10;44.75;99205.31;4981341;28;20418;-88
2024/01/16 13:44:48;;;;;;;;;;;;;;;9.08;42.69;99208.13;4989902;28;19918;-88
2024/01/16 13:47:15;;;;;;;;;;;;;;;9.05;42.52;99220.81;4995130;28;19972;-88
2024/01/16 13:49:40;;;;;;;;;;;;;;;9.04;44.12;99221.81;5006392;28;19917;-87
2024/01/16 13:52:05;;;;;;;;;;;;;;;8.93;43.68;99223.03;5009888;28;19925;-88
2024/01/16 13:54:31;;;;;;;;;;;;;;;8.97;44.22;99226.16;5009959;28;19920;-83
2024/01/16 13:56:56;;;;;;;;;;;;;;;8.98;44.61;99230.41;4994125;28;19925;-88
2024/01/16 13:59:21;;;;;;;;;;;;;;;8.98;43.34;99233.06;4983291;28;19917;-88
2024/01/16 14:01:47;;;;;;;;;;;;;;;8.97;44.60;99240.13;5010804;28;19948;-87
2024/01/16 14:04:12;;;;;;;;;;;;;;;8.96;44.59;99240.31;4988151;28;19918;-87
2024/01/16 14:06:37;;;;;;;;;;;;;;;8.90;43.60;99250.50;5012193;28;20291;-87
2024/01/16 14:09:03;;;;;;;;;;;;;;;8.91;43.73;99259.22;5011572;28;19922;-88
2024/01/16 14:11:28;;;;;;;;;;;;;;;8.88;43.61;99252.50;4992902;28;19920;-88
2024/01/16 14:13:54;;;;;;;;;;;;;;;8.91;44.48;99256.59;4991501;28;20300;-87
2024/01/16 14:16:19;;;;;;;;;;;;;;;8.89;43.42;99256.78;4994635;28;20314;-87
2024/01/16 14:18:45;;;;;;;;;;;;;;;8.90;43.75;99266.31;5010701;28;19923;-87
2024/01/16 14:21:10;;;;;;;;;;;;;;;8.83;43.44;99273.25;4994256;28;19914;-88
2024/01/16 14:23:35;;;;;;;;;;;;;;;8.84;43.95;99272.28;4994451;28;20007;-88
2024/01/16 14:26:00;;;;;;;;;;;;;;;8.85;42.58;99275.72;4983033;28;19925;-87
2024/01/16 14:28:27;;;;;;;;;;;;;;;8.82;43.41;99282.16;4991079;28;20055;-87
2024/01/16 14:30:52;;;;;;;;;;;;;;;8.86;43.98;99290.53;4988361;28;19918;-87
2024/01/16 14:33:17;;;;;;;;;;;;;;;8.83;42.66;99294.31;5011690;28;20306;-87
2024/01/16 14:35:43;;;;;;;;;;;;;;;8.84;43.14;99298.59;5010371;28;20008;-87
2024/01/16 14:38:09;;;;;;;;;;;;;;;8.86;43.14;99304.50;5011173;28;19920;-87
2024/01/16 14:40:34;;;;;;;;;;;;;;;8.85;42.99;99300.25;5003077;28;19922;-86
2024/01/16 14:43:03;;;;;;;;;;;;;;;8.85;43.93;99308.13;5011428;28;19921;-85
2024/01/16 14:45:31;;;;;;;;;;;;;;;8.86;44.33;99315.03;5011314;28;19969;-87
2024/01/16 14:47:56;;;;;;;;;;;;;;;8.82;43.78;99305.03;4981618;28;19917;-87
2024/01/16 14:50:21;;;;;;;;;;;;;;;8.81;44.15;99313.91;4974331;28;19914;-87
2024/01/16 14:52:49;;;;;;;;;;;;;;;8.78;43.39;99317.72;4979773;28;20317;-87
2024/01/16 14:55:14;;;;;;;;;;;;;;;8.72;42.57;99315.78;4995051;28;19924;-87
2024/01/16 14:57:44;;;;;;;;;;;;;;;8.70;42.53;99322.19;5002922;28;19921;-87
2024/01/16 15:00:14;;;;;;;;;;;;;;;8.63;42.13;99322.06;5008285;28;19979;-87
2024/01/16 15:02:39;;;;;;;;;;;;;;;8.63;42.81;99319.44;5012199;28;19913;-87
2024/01/16 15:05:06;;;;;;;;;;;;;;;8.60;43.19;99328.50;5011057;28;19920;-87
2024/01/16 15:07:31;;;;;;;;;;;;;;;8.59;43.64;99329.47;4998416;28;19936;-87
2024/01/16 15:09:56;;;;;;;;;;;;;;;8.55;43.10;99330.00;5012067;28;20247;-87
2024/01/16 15:12:21;;;;;;;;;;;;;;;8.57;43.85;99335.91;5008358;28;19921;-87
2024/01/16 15:14:47;;;;;;;;;;;;;;;8.54;42.65;99338.88;5011481;28;20429;-87
2024/01/16 15:17:12;;;;;;;;;;;;;;;8.53;42.81;99353.84;4994217;28;20008;-87
2024/01/16 15:19:37;;;;;;;;;;;;;;;8.54;44.13;99354.66;4995766;28;19921;-87
2024/01/16 15:22:03;;;;;;;;;;;;;;;8.52;42.04;99361.91;4979042;28;19929;-88
2024/01/16 15:24:28;;;;;;;;;;;;;;;8.51;43.66;99365.53;4990950;28;19918;-87
2024/01/16 15:26:54;;;;;;;;;;;;;;;8.49;43.20;99362.25;4991025;28;19920;-87
2024/01/16 15:29:19;;;;;;;;;;;;;;;8.49;42.02;99373.59;5012651;28;19918;-87
2024/01/16 15:31:44;;;;;;;;;;;;;;;8.50;42.84;99382.31;4977818;28;20314;-87
2024/01/16 15:34:10;;;;;;;;;;;;;;;8.52;44.36;99385.59;4977674;28;20016;-87
2024/01/16 15:36:35;;;;;;;;;;;;;;;8.48;42.19;99386.91;5012801;28;19921;-87
2024/01/16 15:39:02;;;;;;;;;;;;;;;8.48;42.85;99392.19;5002625;28;19937;-87
2024/01/16 15:41:28;;;;;;;;;;;;;;;8.47;43.57;99391.34;5013547;28;19918;-87
2024/01/16 15:43:53;;;;;;;;;;;;;;;8.47;42.73;99385.28;4997011;28;19913;-87
2024/01/16 15:46:19;;;;;;;;;;;;;;;8.48;43.42;99402.69;4997883;28;20382;-87
2024/01/16 15:48:44;;;;;;;;;;;;;;;8.47;42.37;99401.06;4995014;28;19917;-87
2024/01/16 15:51:10;;;;;;;;;;;;;;;8.44;42.61;99396.13;5012558;28;20403;-86
2024/01/16 15:53:35;;;;;;;;;;;;;;;8.44;42.61;99406.66;4996999;28;19922;-87
2024/01/16 15:56:01;;;;;;;;;;;;;;;8.44;43.53;99409.28;5014489;28;20307;-87
2024/01/16 15:58:31;;;;;;;;;;;;;;;8.41;41.39;99399.91;4996739;28;20395;-87
2024/01/16 16:00:57;;;;;;;;;;;;;;;8.38;41.31;99397.63;5014641;28;20383;-87
2024/01/16 16:03:22;;;;;;;;;;;;;;;8.37;41.70;99400.41;4997083;28;20000;-87
2024/01/16 16:05:47;;;;;;;;;;;;;;;8.33;41.67;99405.19;5014980;28;20040;-87
2024/01/16 16:08:13;;;;;;;;;;;;;;;8.33;43.01;99414.88;5014453;28;20315;-87
2024/01/16 16:10:39;;;;;;;;;;;;;;;8.32;42.30;99411.41;5014694;28;19968;-87
2024/01/16 16:13:05;;;;;;;;;;;;;;;8.33;41.34;99420.13;5014518;28;20066;-87
2024/01/16 16:15:31;;;;;;;;;;;;;;;8.28;40.73;99423.25;4996756;28;19933;-87
2024/01/16 16:17:58;;;;;;;;;;;;;;;8.27;42.49;99427.69;4996793;28;19956;-87
2024/01/16 16:20:24;;;;;;;;;;;;;;;8.28;43.25;99437.22;5014285;28;19913;-87
2024/01/16 16:22:50;;;;;;;;;;;;;;;8.28;42.91;99437.22;5014518;28;19955;-87
2024/01/16 16:25:16;;;;;;;;;;;;;;;8.27;44.39;99440.84;4996904;28;20334;-87
2024/01/16 16:27:41;;;;;;;;;;;;;;;8.24;41.29;99437.72;4997126;28;19913;-87
2024/01/16 16:30:07;;;;;;;;;;;;;;;8.24;42.23;99440.34;4996924;28;19920;-87
2024/01/16 16:32:32;;;;;;;;;;;;;;;8.23;42.57;99438.72;4996128;28;19971;-87
2024/01/16 16:34:57;;;;;;;;;;;;;;;8.23;43.07;99444.78;4996390;28;19920;-87
2024/01/16 16:37:23;;;;;;;;;;;;;;;8.21;42.97;99441.50;4996370;28;20036;-87
2024/01/16 16:39:48;;;;;;;;;;;;;;;8.19;43.15;99443.47;4996304;28;20302;-88
2024/01/16 16:42:14;;;;;;;;;;;;;;;8.18;42.79;99448.91;4996473;28;19959;-87
2024/01/16 16:44:39;;;;;;;;;;;;;;;8.12;42.07;99452.97;5013750;28;19921;-87
2024/01/16 16:47:04;;;;;;;;;;;;;;;8.12;43.11;99466.13;4996034;28;19913;-87
2024/01/16 16:49:29;;;;;;;;;;;;;;;8.11;42.42;99463.66;5013679;28;19906;-87
2024/01/16 16:51:55;;;;;;;;;;;;;;;8.09;43.36;99470.91;4996144;28;20032;-86
2024/01/16 16:54:20;;;;;;;;;;;;;;;8.09;43.38;99470.91;4995969;28;19996;-87
2024/01/16 16:56:46;;;;;;;;;;;;;;;8.09;43.56;99479.59;4996145;28;19920;-87